Time;durP1;ratioP1;P1;durP2;ratioP2;P2;SDS_P1;SDS_P2;PMS_P1;PMS_P2;Temp;Humidity;BMP_temperature;BMP_pressure;BME280_temperature;BME280_humidity;BME280_pressure;Samples;Min_cycle;Max_cycle;Signal;HPM_P1;HPM_P2
2023/08/19 00:00:59;;;;;;;7.15;5.00;;;;;;;;;;5013811;28;20077;-57
2023/08/19 00:03:26;;;;;;;6.07;5.10;;;;;;;;;;5013506;28;20105;-57
2023/08/19 00:05:53;;;;;;;6.63;5.07;;;;;;;;;;5013547;28;20096;-56
2023/08/19 00:08:20;;;;;;;6.88;4.70;;;;;;;;;;5013525;28;20046;-57
2023/08/19 00:10:47;;;;;;;8.20;5.50;;;;;;;;;;5017280;28;20502;-54
2023/08/19 00:13:13;;;;;;;6.68;4.82;;;;;;;;;;5013179;28;20077;-52
2023/08/19 00:15:41;;;;;;;6.95;5.43;;;;;;;;;;5013167;28;20130;-55
2023/08/19 00:18:08;;;;;;;7.60;5.20;;;;;;;;;;5013252;28;20104;-58
2023/08/19 00:20:35;;;;;;;7.55;4.88;;;;;;;;;;5013048;28;20384;-52
2023/08/19 00:23:01;;;;;;;7.80;5.10;;;;;;;;;;5013087;28;20519;-55
2023/08/19 00:25:28;;;;;;;6.78;5.18;;;;;;;;;;5013266;28;20057;-51
2023/08/19 00:27:55;;;;;;;6.90;4.97;;;;;;;;;;5012640;28;20042;-56
2023/08/19 00:30:22;;;;;;;6.53;4.97;;;;;;;;;;5012165;28;20475;-53
2023/08/19 00:32:50;;;;;;;6.45;4.68;;;;;;;;;;5013138;28;20041;-56
2023/08/19 00:35:16;;;;;;;7.03;4.72;;;;;;;;;;5013209;28;20052;-52
2023/08/19 00:37:43;;;;;;;8.30;5.47;;;;;;;;;;5013003;28;20063;-56
2023/08/19 00:40:13;;;;;;;6.65;4.80;;;;;;;;;;5014854;28;20042;-55
2023/08/19 00:42:40;;;;;;;5.43;4.68;;;;;;;;;;5018029;28;20050;-53
2023/08/19 00:45:09;;;;;;;6.63;4.30;;;;;;;;;;5013618;28;20074;-55
2023/08/19 00:47:36;;;;;;;5.80;4.50;;;;;;;;;;5012954;28;20048;-57
2023/08/19 00:50:05;;;;;;;7.07;5.07;;;;;;;;;;5012737;28;20399;-54
2023/08/19 00:52:33;;;;;;;7.00;5.10;;;;;;;;;;5012590;28;20466;-56
2023/08/19 00:55:00;;;;;;;6.03;4.57;;;;;;;;;;5013441;28;20129;-58
2023/08/19 00:57:27;;;;;;;6.68;4.35;;;;;;;;;;5015549;28;20396;-58
2023/08/19 00:59:54;;;;;;;5.78;4.28;;;;;;;;;;5012651;28;20435;-56
2023/08/19 01:02:20;;;;;;;7.13;4.57;;;;;;;;;;5012672;28;20112;-57
2023/08/19 01:04:47;;;;;;;7.00;4.43;;;;;;;;;;5012706;28;20052;-54
2023/08/19 01:07:28;;;;;;;5.70;4.88;;;;;;;;;;5012645;28;20490;-52
2023/08/19 01:10:03;;;;;;;7.82;4.65;;;;;;;;;;5011993;28;20084;-51
2023/08/19 01:12:38;;;;;;;5.95;4.80;;;;;;;;;;5012520;28;20464;-51
2023/08/19 01:15:08;;;;;;;7.25;4.63;;;;;;;;;;5012433;28;20050;-54
2023/08/19 01:17:36;;;;;;;6.80;5.18;;;;;;;;;;5012565;28;20046;-54
2023/08/19 01:20:04;;;;;;;6.20;4.28;;;;;;;;;;5013846;28;20052;-52
2023/08/19 01:22:40;;;;;;;7.63;4.55;;;;;;;;;;5011882;28;20046;-50
2023/08/19 01:25:11;;;;;;;5.70;4.63;;;;;;;;;;5011999;28;20144;-54
2023/08/19 01:27:37;;;;;;;7.72;4.85;;;;;;;;;;5012161;28;20312;-52
2023/08/19 01:30:05;;;;;;;6.15;4.25;;;;;;;;;;5011941;28;20410;-56
2023/08/19 01:32:32;;;;;;;5.72;4.35;;;;;;;;;;5012008;28;20045;-55
2023/08/19 01:34:58;;;;;;;6.63;4.88;;;;;;;;;;5011781;28;20108;-52
2023/08/19 01:37:32;;;;;;;7.43;4.70;;;;;;;;;;5011916;28;20056;-52
2023/08/19 01:40:01;;;;;;;6.70;4.68;;;;;;;;;;5011574;28;20050;-53
2023/08/19 01:42:30;;;;;;;8.10;5.20;;;;;;;;;;5011906;28;20135;-56
2023/08/19 01:44:57;;;;;;;6.80;4.30;;;;;;;;;;5011789;28;20046;-57
2023/08/19 01:47:23;;;;;;;5.63;4.13;;;;;;;;;;5011842;28;20060;-55
2023/08/19 01:49:50;;;;;;;6.93;4.70;;;;;;;;;;5011643;28;20440;-52
2023/08/19 01:52:18;;;;;;;7.05;4.82;;;;;;;;;;5011658;28;20337;-54
2023/08/19 01:54:45;;;;;;;5.43;4.20;;;;;;;;;;5011545;28;20046;-55
2023/08/19 01:57:12;;;;;;;7.13;4.63;;;;;;;;;;5011859;28;20562;-55
2023/08/19 01:59:39;;;;;;;8.02;4.60;;;;;;;;;;5011531;28;20505;-51
2023/08/19 02:02:06;;;;;;;6.28;4.30;;;;;;;;;;5011522;28;20509;-55
2023/08/19 02:04:33;;;;;;;6.50;4.70;;;;;;;;;;5011843;28;20185;-56
2023/08/19 02:06:59;;;;;;;6.07;4.43;;;;;;;;;;5011335;28;20105;-57
2023/08/19 02:09:26;;;;;;;6.38;5.10;;;;;;;;;;5011718;28;20046;-51
2023/08/19 02:11:53;;;;;;;6.80;4.65;;;;;;;;;;5011274;28;20045;-55
2023/08/19 02:14:19;;;;;;;6.88;4.70;;;;;;;;;;5011436;28;20129;-56
2023/08/19 02:16:47;;;;;;;6.82;4.47;;;;;;;;;;5010970;28;20046;-54
2023/08/19 02:19:14;;;;;;;6.28;5.00;;;;;;;;;;5011586;28;20054;-55
2023/08/19 02:21:40;;;;;;;6.07;4.65;;;;;;;;;;5011503;28;20042;-57
2023/08/19 02:24:10;;;;;;;7.20;4.60;;;;;;;;;;5011692;28;20474;-55
2023/08/19 02:26:36;;;;;;;6.20;4.70;;;;;;;;;;5012292;28;20046;-55
2023/08/19 02:29:03;;;;;;;6.70;4.50;;;;;;;;;;5023356;28;20038;-54
2023/08/19 02:31:30;;;;;;;7.35;5.00;;;;;;;;;;5010972;28;20056;-52
2023/08/19 02:33:58;;;;;;;6.57;5.25;;;;;;;;;;5011348;28;20056;-56
2023/08/19 02:36:25;;;;;;;6.90;4.55;;;;;;;;;;5011321;28;20050;-56
2023/08/19 02:38:51;;;;;;;8.02;4.97;;;;;;;;;;5011311;28;20046;-57
2023/08/19 02:41:18;;;;;;;6.95;4.68;;;;;;;;;;5016082;28;20055;-55
2023/08/19 02:43:44;;;;;;;9.02;5.88;;;;;;;;;;5012638;28;20046;-52
2023/08/19 02:46:11;;;;;;;8.07;6.57;;;;;;;;;;5011336;28;20052;-55
2023/08/19 02:48:38;;;;;;;6.55;4.72;;;;;;;;;;5011253;28;20065;-57
2023/08/19 02:51:06;;;;;;;5.90;4.47;;;;;;;;;;5010937;28;20046;-56
2023/08/19 02:53:32;;;;;;;7.75;4.82;;;;;;;;;;5014406;28;20054;-55
2023/08/19 02:55:59;;;;;;;6.43;4.50;;;;;;;;;;5014791;28;20045;-56
2023/08/19 02:58:28;;;;;;;8.20;5.90;;;;;;;;;;5015050;28;20046;-55
2023/08/19 03:00:54;;;;;;;8.27;5.65;;;;;;;;;;5014780;28;20068;-54
2023/08/19 03:03:21;;;;;;;8.00;5.15;;;;;;;;;;5014839;28;20042;-56
2023/08/19 03:05:48;;;;;;;6.40;5.15;;;;;;;;;;5014592;28;20046;-53
2023/08/19 03:08:16;;;;;;;6.80;5.20;;;;;;;;;;5014665;28;20046;-55
2023/08/19 03:10:42;;;;;;;5.90;5.00;;;;;;;;;;5014486;28;20041;-55
2023/08/19 03:13:09;;;;;;;8.13;5.20;;;;;;;;;;5014625;28;20042;-57
2023/08/19 03:15:38;;;;;;;7.47;4.47;;;;;;;;;;5014393;28;20077;-55
2023/08/19 03:18:05;;;;;;;6.82;4.97;;;;;;;;;;5014575;28;20062;-56
2023/08/19 03:20:32;;;;;;;6.85;4.65;;;;;;;;;;5014077;28;20054;-55
2023/08/19 03:22:58;;;;;;;7.15;5.13;;;;;;;;;;5014189;28;20085;-54
2023/08/19 03:25:26;;;;;;;7.40;5.05;;;;;;;;;;5014208;28;20050;-54
2023/08/19 03:27:53;;;;;;;6.07;4.93;;;;;;;;;;5014006;28;20052;-56
2023/08/19 03:30:19;;;;;;;6.20;4.93;;;;;;;;;;5013896;28;20042;-55
2023/08/19 03:32:46;;;;;;;6.97;5.07;;;;;;;;;;5014267;28;20049;-55
2023/08/19 03:35:13;;;;;;;7.13;5.43;;;;;;;;;;5013939;28;20054;-53
2023/08/19 03:37:39;;;;;;;7.40;5.07;;;;;;;;;;5014369;28;20487;-54
2023/08/19 03:40:07;;;;;;;8.60;4.70;;;;;;;;;;5014254;28;20455;-52
2023/08/19 03:42:35;;;;;;;6.97;5.40;;;;;;;;;;5021264;28;20045;-53
2023/08/19 03:45:02;;;;;;;6.18;4.57;;;;;;;;;;5019740;28;20392;-55
2023/08/19 03:47:29;;;;;;;5.93;4.35;;;;;;;;;;5014449;28;20042;-55
2023/08/19 03:49:55;;;;;;;6.63;4.60;;;;;;;;;;5013698;28;20045;-52
2023/08/19 03:52:23;;;;;;;6.25;4.13;;;;;;;;;;5019571;28;20048;-55
2023/08/19 03:54:50;;;;;;;6.75;4.82;;;;;;;;;;5014507;28;20089;-55
2023/08/19 03:57:17;;;;;;;6.60;4.85;;;;;;;;;;5013674;28;20554;-52
2023/08/19 03:59:49;;;;;;;7.50;4.43;;;;;;;;;;5013650;28;20050;-55
2023/08/19 04:02:16;;;;;;;6.88;4.82;;;;;;;;;;5013622;28;20060;-57
2023/08/19 04:04:57;;;;;;;9.07;5.07;;;;;;;;;;5019760;28;20045;-51
2023/08/19 04:07:23;;;;;;;6.65;4.72;;;;;;;;;;5013362;28;20050;-58
2023/08/19 04:09:50;;;;;;;8.95;4.75;;;;;;;;;;5013235;28;20046;-55
2023/08/19 04:12:17;;;;;;;6.35;4.82;;;;;;;;;;5013038;28;20041;-55
2023/08/19 04:14:45;;;;;;;6.53;4.97;;;;;;;;;;5013377;28;20052;-52
2023/08/19 04:17:11;;;;;;;7.35;4.38;;;;;;;;;;5013363;28;20049;-55
2023/08/19 04:19:38;;;;;;;6.55;4.68;;;;;;;;;;5013098;28;20097;-55
2023/08/19 04:22:04;;;;;;;7.50;4.70;;;;;;;;;;5013258;28;20054;-56
2023/08/19 04:24:32;;;;;;;7.70;4.90;;;;;;;;;;5013529;28;20048;-54
2023/08/19 04:26:59;;;;;;;7.00;4.43;;;;;;;;;;5017805;28;20422;-56
2023/08/19 04:29:26;;;;;;;7.28;4.60;;;;;;;;;;5012888;28;20474;-56
2023/08/19 04:31:54;;;;;;;7.18;4.63;;;;;;;;;;5013124;28;20129;-51
2023/08/19 04:34:21;;;;;;;6.32;4.80;;;;;;;;;;5013031;28;20056;-52
2023/08/19 04:36:47;;;;;;;6.50;4.35;;;;;;;;;;5012688;28;20046;-55
2023/08/19 04:39:14;;;;;;;7.60;4.80;;;;;;;;;;5013281;28;20042;-56
2023/08/19 04:41:41;;;;;;;6.30;4.90;;;;;;;;;;5013053;28;20057;-55
2023/08/19 04:44:07;;;;;;;6.85;4.35;;;;;;;;;;5012842;28;20041;-56
2023/08/19 04:46:34;;;;;;;6.78;4.55;;;;;;;;;;5012834;28;20045;-51
2023/08/19 04:49:02;;;;;;;7.75;5.00;;;;;;;;;;5012880;28;20050;-54
2023/08/19 04:51:29;;;;;;;5.40;4.50;;;;;;;;;;5012613;28;20370;-54
2023/08/19 04:53:56;;;;;;;6.35;4.43;;;;;;;;;;5012649;28;20240;-52
2023/08/19 04:56:22;;;;;;;6.32;4.47;;;;;;;;;;5012580;28;20048;-55
2023/08/19 04:58:49;;;;;;;6.63;4.65;;;;;;;;;;5012581;28;20056;-55
2023/08/19 05:01:15;;;;;;;7.03;4.25;;;;;;;;;;5012423;28;20045;-56
2023/08/19 05:03:42;;;;;;;7.25;4.60;;;;;;;;;;5012640;28;20407;-51
2023/08/19 05:06:10;;;;;;;6.90;4.22;;;;;;;;;;5012785;28;20046;-55
2023/08/19 05:08:37;;;;;;;7.82;4.63;;;;;;;;;;5012639;28;20050;-57
2023/08/19 05:11:03;;;;;;;7.03;4.38;;;;;;;;;;5012544;28;20513;-55
2023/08/19 05:13:30;;;;;;;7.28;4.47;;;;;;;;;;5012465;28;20042;-52
2023/08/19 05:15:59;;;;;;;6.38;4.32;;;;;;;;;;5029982;22;20042;-60
2023/08/19 05:18:26;;;;;;;6.40;4.78;;;;;;;;;;5035864;28;20041;-58
2023/08/19 05:20:53;;;;;;;7.25;5.05;;;;;;;;;;5032005;28;20081;-58
2023/08/19 05:23:21;;;;;;;7.72;4.38;;;;;;;;;;5032010;28;20042;-57
2023/08/19 05:25:48;;;;;;;6.80;4.63;;;;;;;;;;5031750;28;20041;-55
2023/08/19 05:28:14;;;;;;;6.10;4.60;;;;;;;;;;5032409;28;20059;-56
2023/08/19 05:30:41;;;;;;;6.18;4.30;;;;;;;;;;5031813;28;20473;-57
2023/08/19 05:33:08;;;;;;;6.45;4.43;;;;;;;;;;5032149;28;20041;-58
2023/08/19 05:35:34;;;;;;;6.65;4.25;;;;;;;;;;5031667;28;20044;-58
2023/08/19 05:38:01;;;;;;;7.80;4.72;;;;;;;;;;5031829;28;20068;-58
2023/08/19 05:40:29;;;;;;;9.57;4.95;;;;;;;;;;5031599;28;20049;-58
2023/08/19 05:42:56;;;;;;;7.18;4.85;;;;;;;;;;5031639;28;20097;-57
2023/08/19 05:45:23;;;;;;;7.78;5.18;;;;;;;;;;5031442;28;20055;-57
2023/08/19 05:47:49;;;;;;;7.40;4.65;;;;;;;;;;5031686;28;20148;-58
2023/08/19 05:50:16;;;;;;;5.68;4.13;;;;;;;;;;5031353;28;20105;-57
2023/08/19 05:52:43;;;;;;;7.65;5.25;;;;;;;;;;5031569;28;20057;-55
2023/08/19 05:55:10;;;;;;;8.57;5.68;;;;;;;;;;5031294;28;20049;-58
2023/08/19 05:57:37;;;;;;;6.22;4.68;;;;;;;;;;5031784;28;20128;-58
2023/08/19 06:00:06;;;;;;;6.97;4.85;;;;;;;;;;5031422;28;20428;-58
2023/08/19 06:02:33;;;;;;;6.75;4.97;;;;;;;;;;5023172;28;20049;-55
2023/08/19 06:04:59;;;;;;;7.60;5.10;;;;;;;;;;5030060;28;20049;-56
2023/08/19 06:07:26;;;;;;;7.85;4.82;;;;;;;;;;5031831;28;20049;-54
2023/08/19 06:09:53;;;;;;;6.50;4.47;;;;;;;;;;5026174;28;20049;-58
2023/08/19 06:12:20;;;;;;;5.78;4.10;;;;;;;;;;5031283;28;20132;-58
2023/08/19 06:14:48;;;;;;;7.05;4.50;;;;;;;;;;5031241;28;20046;-55
2023/08/19 06:17:14;;;;;;;8.18;4.53;;;;;;;;;;5031485;28;20445;-57
2023/08/19 06:19:41;;;;;;;8.43;4.43;;;;;;;;;;5031225;28;20055;-58
2023/08/19 06:22:07;;;;;;;8.65;4.95;;;;;;;;;;5030778;28;20046;-58
2023/08/19 06:24:34;;;;;;;7.95;4.60;;;;;;;;;;5031114;28;20053;-59
2023/08/19 06:27:01;;;;;;;7.43;4.68;;;;;;;;;;5028812;28;20370;-59
2023/08/19 06:29:27;;;;;;;8.30;4.47;;;;;;;;;;5034956;28;20037;-59
2023/08/19 06:31:56;;;;;;;7.55;4.90;;;;;;;;;;5034782;28;20140;-59
2023/08/19 06:34:23;;;;;;;8.45;4.85;;;;;;;;;;5035185;28;20057;-58
2023/08/19 06:36:53;;;;;;;7.53;5.13;;;;;;;;;;5033533;28;20044;-57
2023/08/19 06:39:25;;;;;;;11.63;6.22;;;;;;;;;;5029022;28;20587;-58
2023/08/19 06:42:05;;;;;;;7.07;5.40;;;;;;;;;;5019913;28;20559;-58
2023/08/19 06:44:33;;;;;;;11.48;7.40;;;;;;;;;;5034353;28;20064;-59
2023/08/19 06:47:03;;;;;;;10.15;7.22;;;;;;;;;;5034765;28;20049;-58
2023/08/19 06:49:30;;;;;;;;;;;;;;;;;;5034645;28;20065;-58
2023/08/19 06:51:57;;;;;;;9.25;6.32;;;;;;;;;;5034789;28;20296;-58
2023/08/19 06:54:24;;;;;;;9.13;6.30;;;;;;;;;;5035011;28;20502;-59
2023/08/19 06:56:54;;;;;;;10.73;7.88;;;;;;;;;;5015049;28;20056;-58
2023/08/19 06:59:29;;;;;;;10.35;7.00;;;;;;;;;;5014988;28;20052;-59
2023/08/19 07:02:00;;;;;;;10.13;6.07;;;;;;;;;;5028615;28;20503;-59
2023/08/19 07:04:29;;;;;;;10.18;6.10;;;;;;;;;;5028220;28;20049;-59
2023/08/19 07:06:58;;;;;;;8.13;6.68;;;;;;;;;;5033027;28;20045;-59
2023/08/19 07:09:25;;;;;;;9.93;6.22;;;;;;;;;;5034373;28;20045;-57
2023/08/19 07:11:54;;;;;;;10.88;5.80;;;;;;;;;;5034291;28;20287;-58
2023/08/19 07:14:22;;;;;;;7.68;5.57;;;;;;;;;;5033893;28;20198;-59
2023/08/19 07:16:50;;;;;;;8.93;4.53;;;;;;;;;;5034208;28;20054;-58
2023/08/19 07:19:20;;;;;;;7.20;4.72;;;;;;;;;;5034405;28;20045;-59
2023/08/19 07:21:48;;;;;;;5.68;4.68;;;;;;;;;;5034272;28;20052;-57
2023/08/19 07:24:17;;;;;;;7.72;5.38;;;;;;;;;;5034315;28;20057;-56
2023/08/19 07:26:44;;;;;;;6.50;4.50;;;;;;;;;;5033803;28;20479;-60
2023/08/19 07:29:11;;;;;;;6.70;4.47;;;;;;;;;;5026565;28;20041;-57
2023/08/19 07:31:39;;;;;;;7.90;4.57;;;;;;;;;;5033313;28;20052;-61
2023/08/19 07:34:07;;;;;;;7.38;4.97;;;;;;;;;;5034187;28;20470;-53
2023/08/19 07:36:33;;;;;;;6.85;4.85;;;;;;;;;;5033501;28;20049;-54
2023/08/19 07:39:03;;;;;;;8.82;4.57;;;;;;;;;;5033469;28;20158;-61
2023/08/19 07:41:30;;;;;;;7.18;4.32;;;;;;;;;;5033821;28;20517;-59
2023/08/19 07:43:57;;;;;;;9.27;4.88;;;;;;;;;;5034207;28;20486;-59
2023/08/19 07:46:25;;;;;;;8.55;4.35;;;;;;;;;;5031320;28;20144;-60
2023/08/19 07:48:51;;;;;;;6.93;4.10;;;;;;;;;;5032750;28;20041;-59
2023/08/19 07:51:18;;;;;;;7.43;4.20;;;;;;;;;;5032666;28;20045;-58
2023/08/19 07:53:45;;;;;;;6.60;4.43;;;;;;;;;;5033175;28;20049;-58
2023/08/19 07:56:13;;;;;;;7.28;4.10;;;;;;;;;;5033794;28;20500;-59
2023/08/19 07:58:40;;;;;;;8.93;4.30;;;;;;;;;;5031410;28;20057;-57
2023/08/19 08:01:06;;;;;;;5.57;3.88;;;;;;;;;;5032771;28;20478;-57
2023/08/19 08:03:33;;;;;;;7.20;4.65;;;;;;;;;;5032073;28;20045;-59
2023/08/19 08:06:00;;;;;;;5.95;4.35;;;;;;;;;;5033102;28;20049;-55
2023/08/19 08:08:27;;;;;;;6.22;4.60;;;;;;;;;;5029400;28;20041;-59
2023/08/19 08:10:53;;;;;;;7.68;4.68;;;;;;;;;;5033435;28;20056;-59
2023/08/19 08:13:21;;;;;;;7.20;3.85;;;;;;;;;;5033584;28;20049;-59
2023/08/19 08:15:48;;;;;;;10.02;4.35;;;;;;;;;;5024406;28;20063;-59
2023/08/19 08:18:15;;;;;;;9.45;4.32;;;;;;;;;;5032035;28;20042;-53
2023/08/19 08:20:42;;;;;;;9.43;4.28;;;;;;;;;;5032859;28;20041;-57
2023/08/19 08:23:08;;;;;;;6.45;4.60;;;;;;;;;;5033050;28;20077;-59
2023/08/19 08:25:35;;;;;;;13.77;4.53;;;;;;;;;;5032887;28;20088;-59
2023/08/19 08:28:02;;;;;;;9.45;4.40;;;;;;;;;;5033108;28;20100;-59
2023/08/19 08:30:30;;;;;;;11.43;4.30;;;;;;;;;;5032812;28;20125;-59
2023/08/19 08:32:56;;;;;;;11.32;4.55;;;;;;;;;;5020443;28;20052;-57
2023/08/19 08:35:23;;;;;;;5.13;3.58;;;;;;;;;;5032675;28;20141;-65
2023/08/19 08:37:50;;;;;;;6.28;3.80;;;;;;;;;;5032737;28;20060;-59
2023/08/19 08:40:16;;;;;;;8.70;3.97;;;;;;;;;;5032667;28;20128;-61
2023/08/19 08:42:44;;;;;;;8.75;3.78;;;;;;;;;;5032660;28;20513;-63
2023/08/19 08:45:11;;;;;;;5.93;3.92;;;;;;;;;;5032604;28;20124;-63
2023/08/19 08:47:41;;;;;;;8.00;4.00;;;;;;;;;;5032594;28;20077;-63
2023/08/19 08:50:08;;;;;;;14.02;8.75;;;;;;;;;;5030369;28;20041;-60
2023/08/19 08:52:36;;;;;;;9.68;5.18;;;;;;;;;;5032471;28;20486;-62
2023/08/19 08:55:04;;;;;;;9.40;4.90;;;;;;;;;;5032235;28;20046;-59
2023/08/19 08:57:30;;;;;;;8.90;4.80;;;;;;;;;;5032867;28;20487;-59
2023/08/19 08:59:57;;;;;;;12.05;6.63;;;;;;;;;;5032278;28;20184;-56
2023/08/19 09:02:26;;;;;;;8.85;5.20;;;;;;;;;;5034251;28;20049;-58
2023/08/19 09:04:54;;;;;;;8.23;4.55;;;;;;;;;;5035116;28;20045;-59
2023/08/19 09:07:26;;;;;;;8.65;4.53;;;;;;;;;;5031582;28;20145;-60
2023/08/19 09:09:58;;;;;;;6.45;4.10;;;;;;;;;;5030773;28;20049;-60
2023/08/19 09:12:26;;;;;;;5.95;3.92;;;;;;;;;;5033053;28;20410;-59
2023/08/19 09:14:56;;;;;;;5.53;3.85;;;;;;;;;;5032310;28;20473;-63
2023/08/19 09:17:23;;;;;;;6.35;3.95;;;;;;;;;;5031757;28;20128;-61
2023/08/19 09:19:49;;;;;;;5.63;3.63;;;;;;;;;;5031608;28;20136;-55
2023/08/19 09:22:22;;;;;;;5.88;3.80;;;;;;;;;;5031012;28;20077;-57
2023/08/19 09:24:49;;;;;;;5.57;4.15;;;;;;;;;;5031956;28;20049;-58
2023/08/19 09:27:24;;;;;;;5.50;3.42;;;;;;;;;;5024301;28;20049;-61
2023/08/19 09:29:51;;;;;;;6.55;3.75;;;;;;;;;;5035025;28;20072;-60
2023/08/19 09:32:27;;;;;;;5.53;3.80;;;;;;;;;;5037069;28;20129;-61
2023/08/19 09:35:02;;;;;;;6.32;3.97;;;;;;;;;;5034730;28;20130;-60
2023/08/19 09:37:30;;;;;;;6.57;3.50;;;;;;;;;;5040881;28;20426;-59
2023/08/19 09:39:57;;;;;;;5.85;3.50;;;;;;;;;;5041232;28;20044;-59
2023/08/19 09:42:24;;;;;;;6.93;4.03;;;;;;;;;;5041509;28;20153;-59
2023/08/19 09:44:52;;;;;;;7.25;4.20;;;;;;;;;;5036969;28;20041;-59
2023/08/19 09:47:19;;;;;;;5.32;3.30;;;;;;;;;;5040269;28;20599;-62
2023/08/19 09:49:45;;;;;;;5.72;3.97;;;;;;;;;;5045037;28;20514;-61
2023/08/19 09:52:16;;;;;;;6.20;3.90;;;;;;;;;;5031342;28;20045;-54
2023/08/19 09:54:50;;;;;;;11.82;4.32;;;;;;;;;;5031071;28;20064;-56
2023/08/19 09:57:17;;;;;;;6.20;3.58;;;;;;;;;;5025570;28;20399;-56
2023/08/19 09:59:44;;;;;;;6.53;3.75;;;;;;;;;;5034552;28;20529;-59
2023/08/19 10:02:12;;;;;;;5.60;4.00;;;;;;;;;;5027635;28;20696;-57
2023/08/19 10:04:39;;;;;;;9.00;4.00;;;;;;;;;;5030720;28;20056;-61
2023/08/19 10:07:10;;;;;;;7.38;4.18;;;;;;;;;;5031204;28;20055;-60
2023/08/19 10:09:39;;;;;;;8.23;4.60;;;;;;;;;;5031302;28;20140;-57
2023/08/19 10:12:09;;;;;;;5.68;3.90;;;;;;;;;;5031239;28;20041;-61
2023/08/19 10:14:38;;;;;;;6.13;4.43;;;;;;;;;;5027878;28;20410;-57
2023/08/19 10:17:07;;;;;;;5.82;4.50;;;;;;;;;;5029831;28;20559;-61
2023/08/19 10:19:40;;;;;;;6.00;4.03;;;;;;;;;;5011186;28;20054;-61
2023/08/19 10:22:09;;;;;;;7.57;4.13;;;;;;;;;;5010358;28;20158;-57
2023/08/19 10:24:37;;;;;;;6.03;3.70;;;;;;;;;;5010998;28;20133;-60
2023/08/19 10:27:04;;;;;;;7.55;3.90;;;;;;;;;;5013561;28;20046;-59
2023/08/19 10:29:32;;;;;;;7.55;4.25;;;;;;;;;;5030637;28;20041;-59
2023/08/19 10:32:27;;;;;;;9.57;4.30;;;;;;;;;;5024478;28;20052;-58
2023/08/19 10:35:04;;;;;;;7.72;4.00;;;;;;;;;;5024606;28;20137;-60
2023/08/19 10:37:31;;;;;;;6.85;4.10;;;;;;;;;;5030121;28;20541;-58
2023/08/19 10:40:06;;;;;;;4.70;3.20;;;;;;;;;;5027747;28;20085;-59
2023/08/19 10:42:33;;;;;;;6.60;3.83;;;;;;;;;;5021568;28;20056;-59
2023/08/19 10:45:02;;;;;;;6.03;3.90;;;;;;;;;;5025753;28;20124;-57
2023/08/19 10:47:28;;;;;;;4.22;3.05;;;;;;;;;;5030804;28;20045;-58
2023/08/19 10:50:01;;;;;;;7.30;3.72;;;;;;;;;;5027645;28;20045;-57
2023/08/19 10:52:29;;;;;;;4.65;3.50;;;;;;;;;;5026849;28;20041;-57
2023/08/19 10:54:59;;;;;;;6.05;3.28;;;;;;;;;;5030107;28;20482;-59
2023/08/19 10:57:26;;;;;;;5.88;3.42;;;;;;;;;;5027638;28;20053;-59
2023/08/19 10:59:57;;;;;;;6.80;4.13;;;;;;;;;;5026228;28;20053;-57
2023/08/19 11:02:26;;;;;;;6.43;3.70;;;;;;;;;;5024367;28;20042;-59
2023/08/19 11:04:54;;;;;;;5.47;3.55;;;;;;;;;;5027700;28;20041;-59
2023/08/19 11:07:21;;;;;;;5.43;3.70;;;;;;;;;;5025532;28;20059;-58
2023/08/19 11:09:50;;;;;;;5.63;3.90;;;;;;;;;;5022591;28;20038;-59
2023/08/19 11:12:19;;;;;;;5.20;3.70;;;;;;;;;;5026062;28;20421;-59
2023/08/19 11:14:47;;;;;;;5.72;3.80;;;;;;;;;;5028091;28;20045;-58
2023/08/19 11:17:14;;;;;;;6.38;3.60;;;;;;;;;;5034703;22;20045;-55
2023/08/19 11:19:42;;;;;;;5.00;3.50;;;;;;;;;;5028005;28;20043;-56
2023/08/19 11:22:12;;;;;;;5.78;3.38;;;;;;;;;;5028650;28;20128;-53
2023/08/19 11:24:40;;;;;;;5.97;3.83;;;;;;;;;;5030701;28;20041;-53
2023/08/19 11:27:07;;;;;;;5.35;3.63;;;;;;;;;;5030371;28;20053;-54
2023/08/19 11:29:37;;;;;;;6.30;4.13;;;;;;;;;;5031031;28;20072;-56
2023/08/19 11:32:04;;;;;;;6.50;3.67;;;;;;;;;;5025528;28;20051;-56
2023/08/19 11:34:30;;;;;;;6.80;3.83;;;;;;;;;;5030820;28;20048;-54
2023/08/19 11:36:59;;;;;;;6.88;3.60;;;;;;;;;;5030472;28;20064;-53
2023/08/19 11:39:32;;;;;;;6.05;3.95;;;;;;;;;;5028814;28;20045;-55
2023/08/19 11:41:59;;;;;;;4.57;3.55;;;;;;;;;;5024134;28;20164;-55
2023/08/19 11:44:26;;;;;;;6.97;3.83;;;;;;;;;;5027346;28;20046;-54
2023/08/19 11:46:54;;;;;;;5.55;3.42;;;;;;;;;;5030627;28;20068;-55
2023/08/19 11:49:21;;;;;;;5.25;4.30;;;;;;;;;;5030319;28;20049;-51
2023/08/19 11:51:47;;;;;;;5.18;3.90;;;;;;;;;;5030498;28;20054;-55
2023/08/19 11:54:16;;;;;;;4.75;3.40;;;;;;;;;;5030128;28;20500;-53
2023/08/19 11:56:49;;;;;;;7.00;3.80;;;;;;;;;;5030795;28;20068;-56
2023/08/19 11:59:16;;;;;;;4.93;3.33;;;;;;;;;;5030536;28;20059;-55
2023/08/19 12:01:45;;;;;;;5.75;3.33;;;;;;;;;;5030219;28;20045;-55
2023/08/19 12:04:15;;;;;;;4.78;3.42;;;;;;;;;;5031127;28;20056;-55
2023/08/19 12:06:42;;;;;;;5.13;3.17;;;;;;;;;;5030166;28;20046;-57
2023/08/19 12:09:09;;;;;;;5.25;3.47;;;;;;;;;;5030613;28;20045;-55
2023/08/19 12:11:37;;;;;;;4.95;3.72;;;;;;;;;;5030186;28;20053;-56
2023/08/19 12:14:04;;;;;;;5.85;3.63;;;;;;;;;;5030342;28;20055;-56
2023/08/19 12:16:31;;;;;;;5.10;3.65;;;;;;;;;;5029448;28;20049;-56
2023/08/19 12:18:58;;;;;;;5.40;3.45;;;;;;;;;;5030167;28;20059;-56
2023/08/19 12:21:25;;;;;;;4.72;3.40;;;;;;;;;;5029874;28;20046;-53
2023/08/19 12:23:52;;;;;;;6.05;3.67;;;;;;;;;;5028405;28;20060;-57
2023/08/19 12:26:18;;;;;;;7.43;3.33;;;;;;;;;;5026841;28;20048;-56
2023/08/19 12:28:46;;;;;;;4.65;3.30;;;;;;;;;;5028638;28;20057;-55
2023/08/19 12:31:13;;;;;;;6.43;3.47;;;;;;;;;;5026319;28;20063;-53
2023/08/19 12:33:40;;;;;;;5.30;3.60;;;;;;;;;;5029569;28;20060;-54
2023/08/19 12:36:07;;;;;;;5.85;3.42;;;;;;;;;;5029286;28;20049;-57
2023/08/19 12:38:34;;;;;;;6.00;3.67;;;;;;;;;;5029886;28;20121;-53
2023/08/19 12:41:01;;;;;;;7.28;3.38;;;;;;;;;;5029831;28;20063;-56
2023/08/19 12:43:28;;;;;;;5.95;3.35;;;;;;;;;;5029880;28;20077;-57
2023/08/19 12:45:56;;;;;;;6.30;3.40;;;;;;;;;;5029813;28;20467;-56
2023/08/19 12:48:22;;;;;;;6.60;3.38;;;;;;;;;;5025423;28;20056;-53
2023/08/19 12:50:49;;;;;;;5.18;2.95;;;;;;;;;;5029628;28;20516;-52
2023/08/19 12:53:15;;;;;;;5.32;3.80;;;;;;;;;;5029303;28;20486;-57
2023/08/19 12:55:42;;;;;;;6.38;3.50;;;;;;;;;;5029500;28;20041;-57
2023/08/19 12:58:09;;;;;;;4.32;3.10;;;;;;;;;;5029082;28;20041;-58
2023/08/19 13:00:35;;;;;;;5.95;3.33;;;;;;;;;;5029371;28;20414;-53
2023/08/19 13:03:04;;;;;;;6.28;3.80;;;;;;;;;;5029460;28;20048;-55
2023/08/19 13:05:30;;;;;;;5.72;3.30;;;;;;;;;;5029760;28;20056;-58
2023/08/19 13:07:58;;;;;;;4.82;3.00;;;;;;;;;;5028724;28;20049;-57
2023/08/19 13:10:24;;;;;;;5.30;3.38;;;;;;;;;;5029360;28;20077;-55
2023/08/19 13:12:51;;;;;;;7.43;3.45;;;;;;;;;;5028600;28;20187;-58
2023/08/19 13:15:18;;;;;;;5.28;3.38;;;;;;;;;;5028700;28;20516;-61
2023/08/19 13:17:46;;;;;;;9.43;3.28;;;;;;;;;;5028739;28;20103;-57
2023/08/19 13:20:15;;;;;;;6.18;3.42;;;;;;;;;;5028816;28;20383;-53
2023/08/19 13:22:42;;;;;;;7.65;3.67;;;;;;;;;;5028797;28;20059;-55
2023/08/19 13:25:09;;;;;;;7.43;2.78;;;;;;;;;;5026400;28;20084;-56
2023/08/19 13:27:36;;;;;;;5.43;3.13;;;;;;;;;;5026544;28;21285;-56
2023/08/19 13:30:03;;;;;;;6.53;3.03;;;;;;;;;;5025493;28;20051;-57
2023/08/19 13:32:30;;;;;;;5.43;3.00;;;;;;;;;;5028084;28;20073;-56
2023/08/19 13:34:56;;;;;;;6.15;2.83;;;;;;;;;;5028855;28;20498;-51
2023/08/19 13:37:24;;;;;;;5.15;2.80;;;;;;;;;;5028541;28;20041;-55
2023/08/19 13:39:51;;;;;;;5.28;2.85;;;;;;;;;;5028553;28;20046;-52
2023/08/19 13:42:18;;;;;;;3.95;2.67;;;;;;;;;;5028670;28;20050;-56
2023/08/19 13:44:45;;;;;;;5.60;2.83;;;;;;;;;;5028659;28;20053;-57
2023/08/19 13:47:11;;;;;;;5.55;3.53;;;;;;;;;;5027823;28;20044;-58
2023/08/19 13:49:38;;;;;;;6.90;2.85;;;;;;;;;;5027341;28;20507;-59
2023/08/19 13:52:05;;;;;;;8.90;3.25;;;;;;;;;;5026577;28;20049;-56
2023/08/19 13:54:34;;;;;;;6.68;3.17;;;;;;;;;;5028164;28;20049;-58
2023/08/19 13:57:01;;;;;;;8.13;3.50;;;;;;;;;;5028274;28;20076;-58
2023/08/19 13:59:27;;;;;;;5.57;3.08;;;;;;;;;;5028435;28;20502;-57
2023/08/19 14:01:57;;;;;;;6.13;3.10;;;;;;;;;;5028026;28;20128;-55
2023/08/19 14:04:31;;;;;;;6.97;3.20;;;;;;;;;;5028524;28;20053;-57
2023/08/19 14:06:58;;;;;;;6.55;3.00;;;;;;;;;;5027996;28;20045;-58
2023/08/19 14:09:25;;;;;;;5.95;2.90;;;;;;;;;;5028075;28;20140;-55
2023/08/19 14:11:53;;;;;;;4.68;2.90;;;;;;;;;;5028053;28;20054;-56
2023/08/19 14:14:19;;;;;;;4.65;2.70;;;;;;;;;;5028397;28;20056;-57
2023/08/19 14:16:53;;;;;;;6.30;3.10;;;;;;;;;;5027938;28;20140;-58
2023/08/19 14:19:19;;;;;;;5.85;2.75;;;;;;;;;;5027953;28;20049;-59
2023/08/19 14:21:46;;;;;;;4.47;2.53;;;;;;;;;;5028038;28;20132;-59
2023/08/19 14:24:13;;;;;;;6.95;3.17;;;;;;;;;;5028306;28;20421;-53
2023/08/19 14:26:39;;;;;;;5.72;3.20;;;;;;;;;;5027836;28;20081;-58
2023/08/19 14:29:07;;;;;;;8.82;3.15;;;;;;;;;;5028400;28;20045;-55
2023/08/19 14:31:34;;;;;;;5.53;2.78;;;;;;;;;;5027801;28;20405;-58
2023/08/19 14:34:00;;;;;;;5.60;3.17;;;;;;;;;;5027801;28;20049;-56
2023/08/19 14:36:27;;;;;;;6.88;2.60;;;;;;;;;;5027974;28;20441;-57
2023/08/19 14:38:54;;;;;;;6.00;2.40;;;;;;;;;;5028149;28;20042;-57
2023/08/19 14:41:20;;;;;;;5.47;2.60;;;;;;;;;;5027812;28;20049;-57
2023/08/19 14:43:47;;;;;;;5.88;2.60;;;;;;;;;;5028494;28;20057;-53
2023/08/19 14:46:15;;;;;;;7.32;2.83;;;;;;;;;;5027629;28;20072;-54